< < Back
Terminal Aerodrome Forecast


Current Version              Previous Versions:   1  2  3  4  5  6  7  8  9  

Terminal Aerodrome Forecast

864
FTUS42 KGSP 220840 AAC
TAFAVL
TAF AMD
KAVL 220840Z 2209/2306 13004KT 3SM -DZ BR OVC006
      TEMPO 2209/2212 2SM BR OVC004
     FM221300 12004KT 5SM BR OVC008
     FM221900 13005KT P6SM OVC012
     FM230100 13004KT 5SM -DZ BR OVC007=

Latest METAR

423
SAUS70 KWBC 221500 RRK
MTRAVL
METAR KAVL 221454Z 16007KT 2SM BR OVC004 04/03 A3009 RMK AO2 RAE00
SLP193 P0000 60000 T00440033 51006


USA.gov is the U.S. government's official web portal to all federal, state and local government web resources and services.